Time;durP1;ratioP1;P1;durP2;ratioP2;P2;SDS_P1;SDS_P2;PMS_P1;PMS_P2;Temp;Humidity;BMP_temperature;BMP_pressure;BME280_temperature;BME280_humidity;BME280_pressure;Samples;Min_cycle;Max_cycle;Signal;HPM_P1;HPM_P2
2022/10/04 00:00:59;;;;;;;4.03;1.02;;;;;;;9.32;100.00;101401.09;6040037;29;20053;-91
2022/10/04 00:04:12;;;;;;;3.95;1.10;;;;;;;9.40;100.00;101396.28;6035150;29;20179;-91
2022/10/04 00:07:23;;;;;;;4.45;1.27;;;;;;;9.42;100.00;101386.69;6050339;29;20080;-92
2022/10/04 00:10:29;;;;;;;4.55;1.25;;;;;;;9.41;100.00;101388.41;6037402;29;20056;-91
2022/10/04 00:13:34;;;;;;;5.57;1.30;;;;;;;9.39;100.00;101389.44;6050407;29;20038;-91
2022/10/04 00:16:39;;;;;;;2.63;1.23;;;;;;;9.37;100.00;101388.72;6044420;29;20551;-91
2022/10/04 00:19:45;;;;;;;5.00;1.27;;;;;;;9.36;100.00;101390.44;6051173;29;20739;-90
2022/10/04 00:23:30;;;;;;;3.03;1.25;;;;;;;9.34;100.00;101375.97;6030747;29;20041;-91
2022/10/04 00:26:31;;;;;;;4.50;1.40;;;;;;;9.32;100.00;101385.59;6039056;29;20053;-91
2022/10/04 00:29:36;;;;;;;4.72;1.40;;;;;;;9.29;100.00;101378.81;6037160;29;20618;-91
2022/10/04 00:32:38;;;;;;;3.15;1.20;;;;;;;9.27;100.00;101371.19;6033502;29;20367;-91
2022/10/04 00:35:48;;;;;;;4.85;1.58;;;;;;;9.26;100.00;101379.00;6056074;29;20048;-91
2022/10/04 00:39:10;;;;;;;2.97;0.98;;;;;;;9.22;100.00;101373.19;6047909;29;20076;-91
2022/10/04 00:42:31;;;;;;;5.38;1.25;;;;;;;9.21;100.00;101365.53;6032619;29;20439;-91
2022/10/04 00:45:38;;;;;;;3.63;1.20;;;;;;;9.20;100.00;101362.13;6037312;29;20049;-91
2022/10/04 00:48:51;;;;;;;3.92;1.00;;;;;;;9.22;100.00;101362.88;6045282;29;20367;-91
2022/10/04 00:52:06;;;;;;;5.43;1.23;;;;;;;9.24;100.00;101358.44;6044987;29;20232;-91
2022/10/04 00:55:17;;;;;;;7.22;1.55;;;;;;;9.23;100.00;101349.03;6023108;29;20385;-91
2022/10/04 00:58:48;;;;;;;4.50;1.08;;;;;;;9.23;100.00;101348.19;6035673;29;20060;-91
2022/10/04 01:01:55;;;;;;;3.10;1.20;;;;;;;9.20;100.00;101343.22;6033218;29;20519;-91
2022/10/04 01:05:05;;;;;;;4.15;1.38;;;;;;;9.24;100.00;101347.25;6043289;29;20128;-91
2022/10/04 01:08:17;;;;;;;5.25;1.27;;;;;;;9.28;100.00;101359.91;6042455;29;20052;-91
2022/10/04 01:11:27;;;;;;;4.07;1.20;;;;;;;9.34;100.00;101355.28;6054590;29;20055;-91
2022/10/04 01:14:49;;;;;;;3.97;1.30;;;;;;;9.40;100.00;101342.00;6042752;29;20065;-91
2022/10/04 01:18:19;;;;;;;5.25;1.63;;;;;;;9.43;100.00;101336.66;6030060;29;20525;-91
2022/10/04 01:21:29;;;;;;;5.07;1.75;;;;;;;9.46;100.00;101328.72;6032860;29;20044;-91
2022/10/04 01:24:44;;;;;;;6.10;1.73;;;;;;;9.48;100.00;101327.69;6028876;29;20072;-91
2022/10/04 01:27:46;;;;;;;7.60;1.83;;;;;;;9.49;100.00;101321.63;6037352;29;20073;-90
2022/10/04 01:30:48;;;;;;;4.38;1.58;;;;;;;9.51;100.00;101331.84;6033650;29;20053;-91
2022/10/04 01:33:50;;;;;;;2.53;1.52;;;;;;;9.52;100.00;101333.50;6042184;29;20048;-91
2022/10/04 01:36:54;;;;;;;6.43;1.58;;;;;;;9.54;100.00;101335.97;6042217;29;20049;-91
2022/10/04 01:39:57;;;;;;;3.95;1.35;;;;;;;9.54;100.00;101334.25;6058819;29;20519;-91
2022/10/04 01:43:09;;;;;;;2.72;1.30;;;;;;;9.54;100.00;101331.66;6048743;29;20077;-90
2022/10/04 01:46:24;;;;;;;6.35;1.30;;;;;;;9.56;100.00;101329.78;6042489;29;20045;-91
2022/10/04 01:49:31;;;;;;;6.65;1.30;;;;;;;9.56;100.00;101311.69;6040258;29;20512;-91
2022/10/04 01:52:38;;;;;;;5.63;1.63;;;;;;;9.57;100.00;101323.72;6046829;29;20049;-91
2022/10/04 01:55:44;;;;;;;3.55;1.08;;;;;;;9.57;100.00;101326.31;6064972;29;20053;-91
2022/10/04 01:59:03;;;;;;;6.50;1.25;;;;;;;9.57;100.00;101326.31;6050431;29;20041;-91
2022/10/04 02:02:15;;;;;;;1.98;1.23;;;;;;;9.60;100.00;101325.28;6045577;29;20424;-92
2022/10/04 02:05:28;;;;;;;4.57;1.55;;;;;;;9.59;100.00;101318.44;6051833;29;20483;-92
2022/10/04 02:08:34;;;;;;;3.55;1.15;;;;;;;9.58;100.00;101311.63;6042812;29;20045;-91
2022/10/04 02:11:40;;;;;;;2.67;1.00;;;;;;;9.56;100.00;101314.28;6032767;29;20217;-91
2022/10/04 02:14:51;;;;;;;5.15;1.55;;;;;;;9.56;100.00;101310.88;6051553;29;20061;-91
2022/10/04 02:17:55;;;;;;;3.60;1.45;;;;;;;9.56;100.00;101309.13;6042363;29;20285;-91
2022/10/04 02:20:58;;;;;;;5.80;1.33;;;;;;;9.57;100.00;101307.38;6050008;29;20044;-91
2022/10/04 02:24:00;;;;;;;3.13;1.27;;;;;;;9.58;100.00;101303.88;6041015;29;20049;-91
2022/10/04 02:27:02;;;;;;;5.05;1.35;;;;;;;9.56;100.00;101296.19;6051876;29;20033;-91
2022/10/04 02:30:11;;;;;;;5.32;1.33;;;;;;;9.56;100.00;101293.59;6049190;29;20045;-91
2022/10/04 02:33:13;;;;;;;7.68;1.73;;;;;;;9.55;100.00;101286.78;6042605;29;20038;-91
2022/10/04 02:36:16;;;;;;;6.63;1.30;;;;;;;9.56;100.00;101287.63;6044221;29;20165;-92
2022/10/04 02:39:26;;;;;;;2.65;1.10;;;;;;;9.57;100.00;101284.94;6042686;29;20050;-92
2022/10/04 02:42:40;;;;;;;5.20;1.80;;;;;;;9.59;100.00;101277.09;6049912;29;20105;-91
2022/10/04 02:45:50;;;;;;;5.18;1.23;;;;;;;9.58;100.00;101268.50;6057743;29;20126;-91
2022/10/04 02:48:58;;;;;;;3.90;1.40;;;;;;;9.57;100.00;101274.63;6052858;29;20116;-92
2022/10/04 02:52:09;;;;;;;5.13;1.40;;;;;;;9.53;100.00;101262.78;6049757;29;20538;-91
2022/10/04 02:55:18;;;;;;;5.13;1.30;;;;;;;9.46;100.00;101275.25;6033713;29;20068;-91
2022/10/04 02:58:23;;;;;;;6.45;1.30;;;;;;;9.41;100.00;101276.47;6058101;29;20481;-91
2022/10/04 03:01:34;;;;;;;4.28;1.35;;;;;;;9.37;100.00;101273.28;6036596;29;20050;-92
2022/10/04 03:04:38;;;;;;;4.10;1.58;;;;;;;9.38;100.00;101263.75;6042375;29;20033;-91
2022/10/04 03:07:41;;;;;;;5.30;1.25;;;;;;;9.43;100.00;101270.28;6042044;29;20060;-91
2022/10/04 03:10:43;;;;;;;4.03;1.50;;;;;;;9.45;100.00;101267.63;6057335;29;20132;-91
2022/10/04 03:13:52;;;;;;;5.75;1.40;;;;;;;9.48;100.00;101275.19;6048983;29;20048;-91
2022/10/04 03:16:59;;;;;;;5.80;1.63;;;;;;;9.49;100.00;101266.53;6050390;29;20048;-91
2022/10/04 03:20:04;;;;;;;2.72;1.40;;;;;;;9.50;100.00;101265.56;6040541;29;20077;-91
2022/10/04 03:23:07;;;;;;;7.50;1.77;;;;;;;9.51;100.00;101261.22;6041053;29;20056;-91
2022/10/04 03:26:42;;;;;;;7.00;1.75;;;;;;;9.51;100.00;101256.88;6039572;29;20079;-91
2022/10/04 03:29:44;;;;;;;4.20;1.75;;;;;;;9.49;100.00;101251.00;6041779;29;20056;-91
2022/10/04 03:32:48;;;;;;;3.45;1.40;;;;;;;9.50;100.00;101247.50;6055839;29;20045;-91
2022/10/04 03:35:54;;;;;;;5.07;1.40;;;;;;;9.50;100.00;101247.50;6049538;29;20052;-91
2022/10/04 03:38:57;;;;;;;5.10;1.63;;;;;;;9.52;100.00;101242.22;6043362;29;20286;-91
2022/10/04 03:42:19;;;;;;;4.80;1.70;;;;;;;9.52;100.00;101239.66;6051327;29;20045;-91
2022/10/04 03:45:22;;;;;;;7.65;1.70;;;;;;;9.52;100.00;101235.31;6034444;29;20045;-92
2022/10/04 03:48:38;;;;;;;5.07;1.65;;;;;;;9.53;100.00;101231.78;6042968;29;20056;-91
2022/10/04 03:51:45;;;;;;;5.75;1.55;;;;;;;9.55;100.00;101229.94;6036668;29;20053;-91
2022/10/04 03:54:51;;;;;;;6.47;2.05;;;;;;;9.55;100.00;101222.19;6043719;29;20041;-92
2022/10/04 03:57:52;;;;;;;8.27;2.42;;;;;;;9.56;100.00;101228.19;6046493;29;20044;-90
2022/10/04 04:01:19;;;;;;;4.35;1.65;;;;;;;9.53;100.00;101229.19;6040628;29;20268;-91
2022/10/04 04:04:49;;;;;;;4.28;1.50;;;;;;;9.49;100.00;101225.16;6047243;29;20509;-91
2022/10/04 04:08:18;;;;;;;6.47;1.73;;;;;;;9.39;100.00;101226.66;6048598;29;20045;-91
2022/10/04 04:11:29;;;;;;;5.90;1.60;;;;;;;9.30;100.00;101224.66;6043994;29;20052;-91
2022/10/04 04:14:31;;;;;;;4.38;1.52;;;;;;;9.23;100.00;101229.38;6047546;29;20067;-91
2022/10/04 04:17:41;;;;;;;4.28;1.50;;;;;;;9.16;100.00;101223.75;6041532;29;20072;-91
2022/10/04 04:20:50;;;;;;;4.72;2.20;;;;;;;9.09;100.00;101231.97;6044433;29;20049;-91
2022/10/04 04:24:04;;;;;;;3.30;1.55;;;;;;;9.04;100.00;101235.69;6043309;29;20485;-91
2022/10/04 04:27:09;;;;;;;4.13;1.63;;;;;;;8.99;100.00;101229.97;6029924;29;20852;-92
2022/10/04 04:30:15;;;;;;;6.93;2.00;;;;;;;8.99;100.00;101231.69;6026513;29;20053;-90
2022/10/04 04:33:59;;;;;;;6.18;1.83;;;;;;;8.99;100.00;101232.56;6034592;29;20064;-91
2022/10/04 04:37:03;;;;;;;4.88;1.85;;;;;;;9.00;100.00;101231.63;5938299;29;20103;-91
2022/10/04 04:40:19;;;;;;;5.18;1.80;;;;;;;8.98;100.00;101225.72;5945780;29;20146;-92
2022/10/04 04:43:26;;;;;;;6.30;2.10;;;;;;;8.98;100.00;101217.97;5924799;29;20103;-91
2022/10/04 04:46:29;;;;;;;3.42;1.90;;;;;;;8.99;100.00;101211.03;5952678;29;20043;-91
2022/10/04 04:49:32;;;;;;;6.03;1.90;;;;;;;8.99;100.00;101217.06;5953173;29;20047;-91
2022/10/04 04:52:35;;;;;;;4.60;2.03;;;;;;;9.00;100.00;101223.03;5951349;29;20057;-90
2022/10/04 04:55:42;;;;;;;4.70;1.75;;;;;;;8.98;100.00;101219.72;5952437;29;20405;-91
2022/10/04 04:59:06;;;;;;;6.32;1.98;;;;;;;8.97;100.00;101230.97;5952898;29;20163;-91
2022/10/04 05:02:30;;;;;;;4.07;1.98;;;;;;;8.97;100.00;101233.56;5946745;29;20172;-91
2022/10/04 05:05:36;;;;;;;2.97;1.98;;;;;;;8.97;100.00;101234.38;5947451;29;20120;-91
2022/10/04 05:08:37;;;;;;;9.05;1.75;;;;;;;8.98;100.00;101241.19;5949934;29;20395;-91
2022/10/04 05:11:42;;;;;;;5.40;1.70;;;;;;;9.00;100.00;101236.78;5937413;29;20054;-91
2022/10/04 05:14:48;;;;;;;3.55;1.90;;;;;;;9.00;100.00;101236.78;6034617;29;20049;-90
2022/10/04 05:17:50;;;;;;;5.63;2.25;;;;;;;9.01;100.00;101237.59;6042414;29;20056;-91
2022/10/04 05:20:53;;;;;;;5.43;1.92;;;;;;;9.01;100.00;101235.03;6037447;29;20041;-91
2022/10/04 05:23:57;;;;;;;5.28;2.30;;;;;;;9.03;100.00;101236.59;6042912;29;20135;-92
2022/10/04 05:27:12;;;;;;;7.63;2.40;;;;;;;9.04;100.00;101238.25;6048689;29;20436;-91
2022/10/04 05:30:53;;;;;;;9.25;2.20;;;;;;;9.12;100.00;101235.22;6026017;29;20053;-91
2022/10/04 05:34:22;;;;;;;5.97;2.17;;;;;;;9.11;100.00;101233.53;6005968;29;20552;-91
2022/10/04 05:37:50;;;;;;;6.15;2.17;;;;;;;9.12;100.00;101242.94;6007047;29;20094;-91
2022/10/04 05:41:07;;;;;;;4.15;2.20;;;;;;;9.14;100.00;101235.94;6008194;29;20431;-91
2022/10/04 05:44:45;;;;;;;5.70;1.98;;;;;;;9.17;100.00;101237.50;6030468;29;20148;-91
2022/10/04 05:47:50;;;;;;;7.20;2.20;;;;;;;9.18;100.00;101234.81;6008670;29;20585;-91
2022/10/04 05:50:52;;;;;;;7.82;2.03;;;;;;;9.17;100.00;101225.41;6019222;29;20639;-91
2022/10/04 05:53:58;;;;;;;3.38;2.20;;;;;;;9.17;100.00;101229.75;6013760;29;20052;-91
2022/10/04 05:57:09;;;;;;;6.18;1.95;;;;;;;9.17;100.00;101224.59;6007366;29;20551;-91
2022/10/04 06:00:16;;;;;;;6.43;2.03;;;;;;;9.18;100.00;101242.56;6005478;29;20041;-91
2022/10/04 06:03:31;;;;;;;6.18;2.10;;;;;;;9.19;100.00;101239.06;6021576;29;20049;-91
2022/10/04 06:06:39;;;;;;;3.53;2.05;;;;;;;9.23;100.00;101242.28;6013584;29;20050;-91
2022/10/04 06:09:55;;;;;;;6.20;3.25;;;;;;;9.30;100.00;101240.16;6035669;29;20057;-91
2022/10/04 06:13:20;;;;;;;4.15;2.05;;;;;;;9.35;100.00;101246.69;6046532;29;20041;-92
2022/10/04 06:16:40;;;;;;;6.32;2.05;;;;;;;9.45;100.00;101242.59;6039585;29;20064;-92
2022/10/04 06:19:48;;;;;;;7.82;2.47;;;;;;;9.54;100.00;101238.63;6046745;29;20441;-91
2022/10/04 06:22:57;;;;;;;3.13;2.30;;;;;;;9.61;100.00;101242.47;6029654;29;20041;-91
2022/10/04 06:26:12;;;;;;;5.53;2.50;;;;;;;9.68;100.00;101245.50;6032915;29;20137;-91
2022/10/04 06:29:22;;;;;;;5.03;2.33;;;;;;;9.74;100.00;101246.84;6033032;29;20046;-91
2022/10/04 06:32:25;;;;;;;4.82;2.40;;;;;;;9.80;100.00;101243.88;6039721;29;20053;-91
2022/10/04 06:35:48;;;;;;;7.13;3.15;;;;;;;9.83;100.00;101248.84;6042247;29;20052;-91
2022/10/04 06:38:57;;;;;;;8.07;2.60;;;;;;;9.87;100.00;101256.31;6040604;29;20189;-91
2022/10/04 06:42:32;;;;;;;4.88;2.22;;;;;;;9.93;100.00;101252.50;6033745;29;20045;-91
2022/10/04 06:45:59;;;;;;;3.45;1.80;;;;;;;10.01;100.00;101250.28;6041887;29;20059;-91
2022/10/04 06:49:29;;;;;;;6.47;2.40;;;;;;;10.06;100.00;101257.69;6043649;29;20138;-91
2022/10/04 06:52:31;;;;;;;5.17;2.13;;;;;;;10.05;100.00;101251.72;6061235;29;20061;-91
2022/10/04 06:55:51;;;;;;;7.93;2.13;;;;;;;10.12;100.00;101265.09;6041105;29;20344;-91
2022/10/04 06:59:23;;;;;;;5.03;2.70;;;;;;;10.23;100.00;101266.97;6048683;29;20429;-91
2022/10/04 07:02:39;;;;;;;4.18;1.98;;;;;;;10.40;100.00;101263.28;6044862;29;20136;-91
2022/10/04 07:05:55;;;;;;;3.78;2.30;;;;;;;10.60;100.00;101261.97;6042578;29;20057;-91
2022/10/04 07:09:02;;;;;;;5.95;2.50;;;;;;;10.76;100.00;101260.81;6037947;29;20056;-91
2022/10/04 07:12:09;;;;;;;7.60;2.20;;;;;;;10.93;100.00;101251.91;6045914;29;20155;-91
2022/10/04 07:15:23;;;;;;;9.07;2.75;;;;;;;11.13;100.00;101254.88;6044713;29;20051;-91
2022/10/04 07:18:55;;;;;;;5.85;2.63;;;;;;;11.31;100.00;101245.81;6039640;29;20049;-91
2022/10/04 07:22:26;;;;;;;4.75;2.08;;;;;;;11.45;100.00;101237.03;6040023;29;20056;-91
2022/10/04 07:25:35;;;;;;;5.97;2.65;;;;;;;11.53;100.00;101246.91;6055173;29;20420;-91
2022/10/04 07:32:11;;;;;;;8.60;2.53;;;;;;;11.62;100.00;101243.63;6044221;29;20053;-89
2022/10/04 07:35:23;;;;;;;8.10;2.42;;;;;;;11.65;100.00;101248.59;6032957;29;20037;-89
2022/10/04 07:38:30;;;;;;;6.80;2.30;;;;;;;11.66;100.00;101258.03;6045283;29;20052;-89
2022/10/04 07:41:55;;;;;;;6.28;2.50;;;;;;;11.63;100.00;101261.69;6038558;29;20551;-90
2022/10/04 07:45:11;;;;;;;5.40;2.35;;;;;;;11.54;100.00;101262.31;6037566;29;20048;-89
2022/10/04 07:48:23;;;;;;;6.68;2.35;;;;;;;11.44;100.00;101271.69;6034751;29;20053;-89
2022/10/04 07:51:43;;;;;;;8.85;2.83;;;;;;;11.35;100.00;101269.75;6029410;29;20097;-89
2022/10/04 07:55:12;;;;;;;6.53;3.20;;;;;;;11.27;100.00;101272.88;6030502;29;20044;-89
2022/10/04 07:58:38;;;;;;;5.43;2.97;;;;;;;11.19;100.00;101268.22;6036380;29;20321;-89
2022/10/04 08:02:05;;;;;;;8.00;3.00;;;;;;;11.13;100.00;101265.22;6037279;29;20048;-89
2022/10/04 08:05:29;;;;;;;5.60;3.00;;;;;;;11.06;100.00;101254.47;6031392;29;20142;-89
2022/10/04 08:08:31;;;;;;;6.68;2.72;;;;;;;11.04;100.00;101265.88;6028805;29;20048;-89
2022/10/04 08:11:55;;;;;;;5.32;3.13;;;;;;;11.07;100.00;101257.91;6035969;29;20068;-89
2022/10/04 08:15:12;;;;;;;9.88;3.60;;;;;;;11.09;100.00;101249.06;6037196;29;20037;-90
2022/10/04 08:18:25;;;;;;;5.95;3.00;;;;;;;11.19;100.00;101249.28;6046090;29;20072;-89
2022/10/04 08:21:38;;;;;;;7.65;3.17;;;;;;;11.36;100.00;101250.69;6051094;29;20492;-89
2022/10/04 08:25:24;;;;;;;7.80;2.92;;;;;;;11.65;100.00;101243.41;6055270;29;20055;-89
2022/10/04 08:32:22;;;;;;;6.95;3.40;;;;;;;12.25;100.00;101234.69;6001187;29;20117;-90
2022/10/04 08:35:37;;;;;;;7.20;3.13;;;;;;;12.56;100.00;101240.19;6007711;29;20763;-89
2022/10/04 08:38:59;;;;;;;6.40;3.10;;;;;;;12.85;100.00;101242.31;6008806;29;20054;-90
2022/10/04 08:42:20;;;;;;;7.53;2.80;;;;;;;12.99;100.00;101234.28;6007474;29;20053;-89
2022/10/04 08:45:59;;;;;;;7.40;3.05;;;;;;;13.00;100.00;101233.34;6005851;29;20054;-89
2022/10/04 08:49:46;;;;;;;4.80;2.80;;;;;;;12.83;100.00;101239.84;6000427;29;20070;-89
2022/10/04 08:53:01;;;;;;;9.60;3.25;;;;;;;12.60;100.00;101241.59;5968070;29;20069;-90
2022/10/04 08:57:03;;;;;;;5.85;2.90;;;;;;;12.39;100.00;101244.03;5960441;29;20075;-89
2022/10/04 09:00:06;;;;;;;8.77;3.08;;;;;;;12.21;100.00;101245.44;5912326;29;20063;-90
2022/10/04 09:03:44;;;;;;;7.10;2.92;;;;;;;12.08;100.00;101245.50;5906727;29;20101;-90
2022/10/04 09:07:10;;;;;;;7.28;2.80;;;;;;;12.00;100.00;101240.88;5901498;29;20055;-90
2022/10/04 09:10:46;;;;;;;6.78;2.58;;;;;;;11.97;100.00;101245.47;5901223;29;20058;-89
2022/10/04 09:14:13;;;;;;;7.72;2.70;;;;;;;11.98;100.00;101240.16;5921951;29;20629;-92
2022/10/04 09:17:46;;;;;;;7.55;2.60;;;;;;;12.01;100.00;101244.31;5912798;29;20139;-89
2022/10/04 09:20:50;;;;;;;11.57;3.65;;;;;;;12.10;100.00;101248.81;5912351;29;20527;-92
2022/10/04 09:24:19;;;;;;;2.97;2.53;;;;;;;12.23;100.00;101248.75;5914792;30;20673;-90
2022/10/04 09:27:51;;;;;;;8.55;3.00;;;;;;;12.32;100.00;101248.03;5929047;29;20059;-89
2022/10/04 09:31:27;;;;;;;4.22;2.30;;;;;;;12.43;100.00;101239.47;5996020;29;20136;-89
2022/10/04 09:34:44;;;;;;;5.38;2.30;;;;;;;12.50;100.00;101241.47;6023724;29;20065;-89
2022/10/04 09:38:04;;;;;;;7.03;2.60;;;;;;;12.55;100.00;101243.72;6043132;29;20049;-89
2022/10/04 09:41:40;;;;;;;9.73;3.13;;;;;;;12.61;100.00;101234.63;6034186;29;20049;-89
2022/10/04 09:45:33;;;;;;;11.25;2.83;;;;;;;12.76;100.00;101237.84;6038531;29;20129;-89
2022/10/04 09:49:14;;;;;;;6.57;3.38;;;;;;;13.00;100.00;101235.13;6015280;29;20342;-89
2022/10/04 09:52:59;;;;;;;4.82;2.83;;;;;;;13.23;100.00;101226.34;5973581;29;20073;-90
2022/10/04 09:56:19;;;;;;;6.35;2.83;;;;;;;13.50;100.00;101219.91;5973553;29;20060;-90
2022/10/04 09:59:36;;;;;;;5.88;2.60;;;;;;;13.90;100.00;101219.28;5973604;29;20102;-89
2022/10/04 10:03:12;;;;;;;4.13;2.47;;;;;;;14.18;100.00;101220.44;5963099;29;20061;-89
2022/10/04 10:06:43;;;;;;;4.75;2.35;;;;;;;14.12;100.00;101226.16;5974346;29;20062;-89
2022/10/04 10:14:27;;;;;;;5.40;2.35;;;;;;;13.46;100.00;101221.09;5892534;30;20067;-90
2022/10/04 10:17:48;;;;;;;5.40;2.30;;;;;;;13.28;100.00;101210.41;5912136;30;20104;-89
2022/10/04 10:20:59;;;;;;;4.40;2.05;;;;;;;13.30;100.00;101211.94;5913883;30;20316;-89
2022/10/04 10:24:01;;;;;;;;;;;;;;;13.44;100.00;101200.44;5895252;30;20064;-90
2022/10/04 10:27:34;;;;;;;3.30;1.92;;;;;;;13.64;100.00;101196.22;5888669;30;19930;-90
2022/10/04 10:31:12;;;;;;;3.85;2.10;;;;;;;13.74;100.00;101201.50;5972890;29;20054;-90
2022/10/04 10:34:24;;;;;;;4.50;2.13;;;;;;;13.91;100.00;101210.53;5977564;29;20137;-90
2022/10/04 10:37:43;;;;;;;;;;;;;;;14.12;100.00;101197.53;5976015;29;20501;-90
2022/10/04 10:41:31;;;;;;;4.97;1.77;;;;;;;14.37;100.00;101193.69;5976569;29;19980;-90
2022/10/04 10:45:00;;;;;;;2.63;1.52;;;;;;;14.46;100.00;101176.44;5962871;29;20141;-90
2022/10/04 10:48:13;;;;;;;5.43;1.90;;;;;;;14.46;100.00;101182.50;6029867;29;20087;-90
2022/10/04 10:51:54;;;;;;;3.97;2.15;;;;;;;14.49;100.00;101177.03;6042053;29;20487;-90
2022/10/04 10:55:33;;;;;;;4.13;1.80;;;;;;;14.53;100.00;101174.97;6042272;29;20077;-90
2022/10/04 10:59:11;;;;;;;4.18;2.05;;;;;;;14.67;100.00;101184.25;6050488;29;20067;-90
2022/10/04 11:02:35;;;;;;;4.15;1.90;;;;;;;14.85;100.00;101178.25;6046743;29;20053;-90
2022/10/04 11:06:05;;;;;;;5.65;1.67;;;;;;;15.02;99.57;101175.97;6049708;29;20049;-89
2022/10/04 11:09:39;;;;;;;5.55;2.05;;;;;;;15.08;98.67;101162.44;6056728;29;20045;-88
2022/10/04 11:13:00;;;;;;;4.13;1.90;;;;;;;15.16;99.04;101149.53;6049422;29;20053;-89
2022/10/04 11:16:05;;;;;;;7.32;2.13;;;;;;;15.19;99.79;101174.50;6042324;29;20053;-89
2022/10/04 11:19:14;;;;;;;4.97;2.17;;;;;;;15.35;100.00;101168.75;6050071;29;20053;-89
2022/10/04 11:22:49;;;;;;;6.43;2.25;;;;;;;15.40;98.73;101156.13;6040430;29;20065;-92
2022/10/04 11:26:23;;;;;;;3.42;1.83;;;;;;;15.45;97.26;101156.53;6019736;29;20152;-92
2022/10/04 11:29:43;;;;;;;3.22;1.63;;;;;;;15.45;96.03;101159.97;6021412;29;20563;-92
2022/10/04 11:33:09;;;;;;;6.30;2.25;;;;;;;15.55;96.86;101156.53;6014267;29;20538;-92
2022/10/04 11:36:25;;;;;;;3.80;1.75;;;;;;;15.66;96.87;101165.03;6018515;29;20049;-92
2022/10/04 11:39:30;;;;;;;4.60;1.80;;;;;;;15.64;94.33;101159.13;6019066;29;20053;-91
2022/10/04 11:43:02;;;;;;;3.03;1.80;;;;;;;15.75;96.29;101155.59;6020211;29;20088;-91
2022/10/04 11:46:19;;;;;;;6.28;2.25;;;;;;;15.84;95.58;101151.31;6020627;29;20151;-91
2022/10/04 11:49:56;;;;;;;7.63;2.20;;;;;;;15.96;93.13;101147.59;6020280;29;20054;-91
2022/10/04 11:53:22;;;;;;;6.53;2.20;;;;;;;15.93;95.38;101147.88;6020357;29;20060;-91
2022/10/04 11:56:36;;;;;;;3.70;2.38;;;;;;;15.88;96.51;101135.22;6018419;29;20555;-91
2022/10/04 12:00:01;;;;;;;6.10;2.30;;;;;;;15.85;96.80;101126.84;6017649;29;20041;-92
2022/10/04 12:03:31;;;;;;;4.20;2.15;;;;;;;15.99;96.15;101130.81;6043602;29;20140;-92
2022/10/04 12:07:01;;;;;;;6.88;1.98;;;;;;;15.97;94.48;101127.50;6039168;29;20518;-91
2022/10/04 12:10:12;;;;;;;3.40;2.05;;;;;;;15.98;95.52;101121.34;6054072;29;20041;-90
2022/10/04 12:13:49;;;;;;;2.38;1.90;;;;;;;16.03;96.80;101119.13;6043604;29;20155;-90
2022/10/04 12:17:09;;;;;;;6.18;2.30;;;;;;;16.01;96.47;101114.03;6040132;29;20052;-89
2022/10/04 12:21:02;;;;;;;5.22;2.40;;;;;;;15.98;95.03;101109.09;6034786;29;20519;-90
2022/10/04 12:24:22;;;;;;;4.68;2.20;;;;;;;16.06;97.17;101103.97;6000585;29;20058;-90
2022/10/04 12:27:33;;;;;;;5.77;2.47;;;;;;;16.17;96.12;101099.53;5997126;29;20442;-90
2022/10/04 12:31:10;;;;;;;4.85;2.53;;;;;;;16.21;93.30;101087.84;5990906;29;20290;-91
2022/10/04 12:34:37;;;;;;;6.00;2.30;;;;;;;16.33;91.20;101086.69;5997439;29;20054;-91
2022/10/04 12:37:45;;;;;;;6.97;2.42;;;;;;;16.43;90.63;101084.84;5993332;29;20053;-91
2022/10/04 12:41:05;;;;;;;5.30;2.50;;;;;;;16.50;90.80;101085.09;5997514;29;20139;-88
2022/10/04 12:44:39;;;;;;;5.40;2.13;;;;;;;16.60;87.28;101075.41;5993408;29;20581;-89
2022/10/04 12:48:04;;;;;;;6.18;2.65;;;;;;;16.72;87.86;101068.16;5994961;29;20054;-89
2022/10/04 12:51:31;;;;;;;5.13;2.28;;;;;;;16.86;88.07;101057.22;5989110;29;20315;-89
2022/10/04 12:54:41;;;;;;;3.03;1.83;;;;;;;16.93;86.27;101060.91;6000247;29;20054;-89
2022/10/04 12:58:21;;;;;;;4.10;2.15;;;;;;;17.01;86.35;101055.72;5981307;29;20321;-87
2022/10/04 13:01:48;;;;;;;3.83;2.15;;;;;;;17.07;87.03;101045.63;6041562;29;20052;-86
2022/10/04 13:04:54;;;;;;;7.20;2.35;;;;;;;17.15;87.14;101050.97;6041685;29;20045;-86
2022/10/04 13:08:02;;;;;;;3.50;2.28;;;;;;;17.25;86.39;101056.91;6030222;29;20055;-90
2022/10/04 13:11:42;;;;;;;3.53;2.33;;;;;;;17.41;86.48;101038.69;6045817;29;20087;-91
2022/10/04 13:15:08;;;;;;;4.65;2.15;;;;;;;17.50;83.18;101042.22;6039093;29;20049;-91
2022/10/04 13:18:33;;;;;;;4.90;2.20;;;;;;;17.55;83.29;101033.91;6035637;29;20045;-91
2022/10/04 13:21:35;;;;;;;2.80;2.10;;;;;;;17.64;83.24;101039.03;6034535;29;20171;-91
2022/10/04 13:25:35;;;;;;;6.85;2.53;;;;;;;17.75;84.11;101039.75;6042118;29;20036;-91
2022/10/04 13:29:01;;;;;;;4.95;2.08;;;;;;;17.86;82.66;101034.25;5997924;29;20132;-90
2022/10/04 13:32:23;;;;;;;5.63;2.72;;;;;;;17.95;82.97;101040.38;5999894;29;20995;-91
2022/10/04 13:35:47;;;;;;;4.63;2.10;;;;;;;18.04;80.91;101035.00;5984561;29;20531;-90
2022/10/04 13:39:08;;;;;;;4.00;2.30;;;;;;;18.05;81.03;101034.03;5982218;29;20054;-91
2022/10/04 13:42:54;;;;;;;3.78;2.63;;;;;;;18.22;81.62;101024.44;5982312;29;20050;-91
2022/10/04 13:46:05;;;;;;;3.00;2.20;;;;;;;18.27;78.31;101027.38;6003173;29;20054;-91
2022/10/04 13:49:48;;;;;;;3.67;2.13;;;;;;;18.34;80.37;101027.59;5970526;29;20057;-91
2022/10/04 13:57:28;;;;;;;4.97;2.42;;;;;;;18.46;81.27;101026.31;6000504;29;20577;-90
2022/10/04 14:01:07;;;;;;;6.38;2.35;;;;;;;18.48;82.33;101013.88;6002579;29;20184;-91
2022/10/04 14:04:47;;;;;;;8.02;2.55;;;;;;;18.56;81.42;101005.19;6000275;29;20058;-91
2022/10/04 14:08:16;;;;;;;3.33;2.50;;;;;;;18.59;79.09;101006.66;6000061;29;20164;-90
2022/10/04 14:11:52;;;;;;;4.05;2.40;;;;;;;18.63;80.31;101006.19;6003499;29;20054;-91
2022/10/04 14:15:25;;;;;;;5.55;2.55;;;;;;;18.64;81.13;100992.09;6003599;29;20073;-91
2022/10/04 14:18:45;;;;;;;3.35;2.20;;;;;;;18.71;81.36;100993.06;6002699;29;20094;-91
2022/10/04 14:22:14;;;;;;;5.57;2.58;;;;;;;18.75;79.88;100983.06;6004726;29;20516;-91
2022/10/04 14:25:44;;;;;;;7.43;2.75;;;;;;;18.81;77.89;100981.63;6004782;29;20537;-90
2022/10/04 14:29:28;;;;;;;3.65;2.20;;;;;;;18.75;80.08;100969.94;6003397;29;20050;-90
2022/10/04 14:33:07;;;;;;;5.07;2.70;;;;;;;18.68;81.31;100967.19;5954157;29;20199;-88
2022/10/04 14:36:25;;;;;;;2.78;2.50;;;;;;;18.71;79.48;100966.84;5970174;29;20059;-87
2022/10/04 14:39:52;;;;;;;5.25;2.25;;;;;;;18.71;80.31;100966.84;5971005;29;20084;-88
2022/10/04 14:43:31;;;;;;;11.23;3.70;;;;;;;18.67;79.01;100972.56;5970826;29;20167;-87
2022/10/04 14:47:10;;;;;;;4.63;2.30;;;;;;;18.63;78.72;100968.63;5965942;29;20054;-87
2022/10/04 14:50:29;;;;;;;2.92;2.17;;;;;;;18.60;80.65;100955.84;5968097;29;20114;-87
2022/10/04 14:53:46;;;;;;;3.30;2.50;;;;;;;18.59;81.71;100956.84;5970114;29;20054;-87
2022/10/04 14:57:26;;;;;;;4.75;2.22;;;;;;;18.47;79.84;100956.34;5971733;29;20292;-87
2022/10/04 15:00:47;;;;;;;4.75;2.75;;;;;;;18.42;79.28;100962.06;5975381;29;20061;-87
2022/10/04 15:04:20;;;;;;;6.22;2.22;;;;;;;18.38;79.84;100965.16;5976374;29;20252;-87
2022/10/04 15:07:42;;;;;;;4.70;2.38;;;;;;;18.32;80.80;100958.78;5971968;29;20047;-87
2022/10/04 15:11:05;;;;;;;6.40;2.53;;;;;;;18.34;80.74;100963.88;6043357;29;20057;-88
2022/10/04 15:14:46;;;;;;;3.05;2.65;;;;;;;18.24;80.03;100964.81;6041210;29;20052;-87
2022/10/04 15:17:53;;;;;;;;;;;;;;;18.13;81.52;100967.72;6050336;29;20057;-87
2022/10/04 15:21:29;;;;;;;5.15;2.50;;;;;;;18.04;81.98;100966.91;6053884;29;19927;-87
2022/10/04 15:24:45;;;;;;;6.32;2.70;;;;;;;17.90;81.23;100967.50;6043346;29;20049;-87
2022/10/04 15:27:52;;;;;;;3.28;2.20;;;;;;;17.79;83.41;100965.16;6054550;29;20582;-87
2022/10/04 15:31:18;;;;;;;6.35;2.22;;;;;;;17.69;83.93;100962.66;6050472;29;20097;-87
2022/10/04 15:34:26;;;;;;;7.32;2.90;;;;;;;17.58;83.15;100958.47;6049332;29;20123;-86
2022/10/04 15:37:50;;;;;;;5.35;2.38;;;;;;;17.51;84.79;100948.78;6050160;29;20053;-87